Time;durP1;ratioP1;P1;durP2;ratioP2;P2;SDS_P1;SDS_P2;PMS_P1;PMS_P2;Temp;Humidity;BMP_temperature;BMP_pressure;BME280_temperature;BME280_humidity;BME280_pressure;Samples;Min_cycle;Max_cycle;Signal;HPM_P1;HPM_P2
2023/09/24 00:01:25;;;;;;;;;;;;;;;9.22;100.00;102291.56;5004162;28;20249;-71
2023/09/24 00:03:50;;;;;;;;;;;;;;;9.19;100.00;102287.19;5000444;28;19921;-71
2023/09/24 00:06:16;;;;;;;;;;;;;;;9.30;100.00;102294.72;5003168;28;19925;-71
2023/09/24 00:08:41;;;;;;;;;;;;;;;9.23;100.00;102287.94;5003650;28;19928;-71
2023/09/24 00:11:08;;;;;;;;;;;;;;;9.13;100.00;102285.69;4999368;28;19921;-71
2023/09/24 00:13:34;;;;;;;;;;;;;;;9.13;100.00;102291.06;5003256;28;19918;-71
2023/09/24 00:16:09;;;;;;;;;;;;;;;9.20;100.00;102296.97;5003119;28;19925;-71
2023/09/24 00:18:35;;;;;;;;;;;;;;;9.11;100.00;102290.25;5000900;28;19931;-71
2023/09/24 00:21:01;;;;;;;;;;;;;;;9.11;100.00;102292.94;5004679;28;19921;-71
2023/09/24 00:23:28;;;;;;;;;;;;;;;9.14;100.00;102292.78;4996852;28;19924;-71
2023/09/24 00:25:55;;;;;;;;;;;;;;;9.15;100.00;102296.31;5003817;28;20296;-71
2023/09/24 00:28:20;;;;;;;;;;;;;;;9.21;100.00;102300.53;4975623;28;19945;-71
2023/09/24 00:30:46;;;;;;;;;;;;;;;9.21;100.00;102303.22;4998501;28;20585;-71
2023/09/24 00:33:11;;;;;;;;;;;;;;;9.18;100.00;102308.72;4983293;28;20475;-72
2023/09/24 00:35:36;;;;;;;;;;;;;;;9.12;100.00;102309.91;5003050;28;19963;-71
2023/09/24 00:38:01;;;;;;;;;;;;;;;9.09;100.00;102300.19;5005890;28;20292;-71
2023/09/24 00:40:27;;;;;;;;;;;;;;;9.09;100.00;102304.69;5002836;28;20618;-72
2023/09/24 00:42:53;;;;;;;;;;;;;;;9.11;100.00;102302.81;4985331;28;20197;-71
2023/09/24 00:45:18;;;;;;;;;;;;;;;9.09;100.00;102293.97;5001538;28;20036;-71
2023/09/24 00:47:43;;;;;;;;;;;;;;;9.08;100.00;102290.41;5000186;28;19980;-71
2023/09/24 00:50:09;;;;;;;;;;;;;;;9.07;100.00;102299.38;4997135;28;19933;-71
2023/09/24 00:52:35;;;;;;;;;;;;;;;8.97;100.00;102282.03;4999743;28;20705;-71
2023/09/24 00:55:00;;;;;;;;;;;;;;;9.12;100.00;102289.31;5006337;28;20055;-71
2023/09/24 00:57:26;;;;;;;;;;;;;;;9.12;100.00;102301.88;4985562;28;20030;-71
2023/09/24 00:59:51;;;;;;;;;;;;;;;9.13;100.00;102300.91;5002712;28;20123;-71
2023/09/24 01:02:17;;;;;;;;;;;;;;;9.06;100.00;102299.47;5002062;28;19984;-71
2023/09/24 01:04:42;;;;;;;;;;;;;;;8.97;100.00;102314.19;5001411;28;19921;-71
2023/09/24 01:07:08;;;;;;;;;;;;;;;8.93;100.00;102321.47;5000216;28;20016;-71
2023/09/24 01:09:33;;;;;;;;;;;;;;;8.95;100.00;102314.22;5001271;28;20381;-71
2023/09/24 01:12:03;;;;;;;;;;;;;;;8.85;100.00;102294.19;5000226;28;19922;-71
2023/09/24 01:14:28;;;;;;;;;;;;;;;8.86;100.00;102314.69;5004713;28;19921;-71
2023/09/24 01:16:54;;;;;;;;;;;;;;;8.85;100.00;102315.63;4997651;28;19929;-71
2023/09/24 01:19:21;;;;;;;;;;;;;;;8.79;100.00;102298.00;5001860;28;20149;-71
2023/09/24 01:21:47;;;;;;;;;;;;;;;8.85;100.00;102313.81;5000149;28;19921;-71
2023/09/24 01:24:12;;;;;;;;;;;;;;;8.84;100.00;102313.88;4987809;28;19928;-71
2023/09/24 01:26:38;;;;;;;;;;;;;;;8.80;100.00;102312.28;4997130;28;19925;-71
2023/09/24 01:29:07;;;;;;;;;;;;;;;8.75;100.00;102308.94;5002386;28;19928;-71
2023/09/24 01:31:32;;;;;;;;;;;;;;;8.77;100.00;102307.06;4999784;28;20364;-71
2023/09/24 01:33:59;;;;;;;;;;;;;;;8.77;100.00;102307.06;5003892;28;19944;-71
2023/09/24 01:36:24;;;;;;;;;;;;;;;8.82;100.00;102297.88;4991874;28;20521;-71
2023/09/24 01:38:50;;;;;;;;;;;;;;;8.77;100.00;102278.47;5004119;28;19928;-71
2023/09/24 01:41:15;;;;;;;;;;;;;;;8.91;100.00;102295.72;5020793;28;19921;-71
2023/09/24 01:43:43;;;;;;;;;;;;;;;8.83;100.00;102301.44;5008110;28;20080;-71
2023/09/24 01:46:08;;;;;;;;;;;;;;;8.66;100.00;102283.47;5006322;28;19926;-71
2023/09/24 01:48:35;;;;;;;;;;;;;;;8.74;100.00;102289.31;5008255;28;19932;-71
2023/09/24 01:51:12;;;;;;;;;;;;;;;8.69;100.00;102286.88;4985898;28;20039;-71
2023/09/24 01:53:38;;;;;;;;;;;;;;;8.69;100.00;102302.09;5001773;28;20015;-71
2023/09/24 01:56:04;;;;;;;;;;;;;;;8.67;100.00;102294.09;5005539;28;20387;-71
2023/09/24 01:58:30;;;;;;;;;;;;;;;8.66;100.00;102296.88;5002265;28;20383;-71
2023/09/24 02:00:55;;;;;;;;;;;;;;;8.65;100.00;102293.31;5004800;28;19921;-71
2023/09/24 02:03:20;;;;;;;;;;;;;;;8.65;100.00;102298.66;5001132;28;19921;-71
2023/09/24 02:05:46;;;;;;;;;;;;;;;8.64;100.00;102291.56;5001818;28;19926;-71
2023/09/24 02:08:11;;;;;;;;;;;;;;;8.60;100.00;102294.47;5006342;28;20089;-71
2023/09/24 02:10:40;;;;;;;;;;;;;;;8.57;100.00;102295.50;4999177;28;19963;-72
2023/09/24 02:13:06;;;;;;;;;;;;;;;8.54;100.00;102287.59;5002630;28;20019;-72
2023/09/24 02:15:32;;;;;;;;;;;;;;;8.57;100.00;102292.81;4999539;28;19940;-71
2023/09/24 02:17:57;;;;;;;;;;;;;;;8.63;100.00;102307.72;5003013;28;19921;-71
2023/09/24 02:20:27;;;;;;;;;;;;;;;8.60;100.00;102302.50;5004180;28;19913;-71
2023/09/24 02:22:56;;;;;;;;;;;;;;;8.53;100.00;102310.81;4998957;28;19921;-71
2023/09/24 02:25:21;;;;;;;;;;;;;;;8.55;100.00;102313.44;5001953;28;19923;-71
2023/09/24 02:27:48;;;;;;;;;;;;;;;8.51;100.00;102307.31;5007027;28;19921;-71
2023/09/24 02:30:15;;;;;;;;;;;;;;;8.53;100.00;102320.66;4998781;28;19929;-71
2023/09/24 02:32:40;;;;;;;;;;;;;;;8.45;100.00;102323.66;5005498;28;19921;-71
2023/09/24 02:35:08;;;;;;;;;;;;;;;8.48;100.00;102322.63;4990646;28;19928;-71
2023/09/24 02:37:34;;;;;;;;;;;;;;;8.48;100.00;102328.00;4992970;28;19921;-71
2023/09/24 02:39:59;;;;;;;;;;;;;;;8.45;100.00;102323.66;4999500;28;19925;-71
2023/09/24 02:42:25;;;;;;;;;;;;;;;8.43;100.00;102328.22;5004675;28;19929;-72
2023/09/24 02:44:50;;;;;;;;;;;;;;;8.40;100.00;102318.50;5002942;28;19921;-71
2023/09/24 02:47:15;;;;;;;;;;;;;;;8.44;100.00;102326.38;5005936;28;20455;-71
2023/09/24 02:49:41;;;;;;;;;;;;;;;8.44;100.00;102326.38;5000153;28;19928;-71
2023/09/24 02:52:06;;;;;;;;;;;;;;;8.42;100.00;102326.47;5002815;28;19921;-71
2023/09/24 02:54:31;;;;;;;;;;;;;;;8.45;100.00;102325.44;4991620;28;19932;-71
2023/09/24 02:56:58;;;;;;;;;;;;;;;8.48;100.00;102326.19;5001661;28;20330;-71
2023/09/24 02:59:23;;;;;;;;;;;;;;;8.50;100.00;102327.00;4991634;28;19921;-71
2023/09/24 03:01:48;;;;;;;;;;;;;;;8.44;100.00;102318.34;4982372;28;20261;-71
2023/09/24 03:04:15;;;;;;;;;;;;;;;8.35;100.00;102323.16;4999729;28;20433;-71
2023/09/24 03:06:41;;;;;;;;;;;;;;;8.26;100.00;102320.94;4984808;28;19956;-72
2023/09/24 03:09:10;;;;;;;;;;;;;;;8.25;100.00;102321.88;4997706;28;20307;-71
2023/09/24 03:11:35;;;;;;;;;;;;;;;8.24;100.00;102325.47;4998808;28;19921;-71
2023/09/24 03:14:00;;;;;;;;;;;;;;;8.21;100.00;102330.97;4999661;28;19948;-71
2023/09/24 03:16:28;;;;;;;;;;;;;;;8.17;100.00;102337.38;5001091;28;19960;-71
2023/09/24 03:18:53;;;;;;;;;;;;;;;8.10;100.00;102332.28;5001092;28;19917;-71
2023/09/24 03:21:18;;;;;;;;;;;;;;;8.09;100.00;102337.72;5017628;28;19931;-71
2023/09/24 03:23:44;;;;;;;;;;;;;;;8.18;100.00;102339.13;4999018;28;19971;-71
2023/09/24 03:26:14;;;;;;;;;;;;;;;8.14;100.00;102340.19;5002485;28;19939;-71
2023/09/24 03:28:39;;;;;;;;;;;;;;;8.16;100.00;102351.69;4998374;28;19921;-71
2023/09/24 03:31:04;;;;;;;;;;;;;;;8.07;100.00;102342.25;5001068;28;20737;-71
2023/09/24 03:33:30;;;;;;;;;;;;;;;8.12;100.00;102350.97;5001356;28;20477;-71
2023/09/24 03:35:55;;;;;;;;;;;;;;;8.10;100.00;102356.38;5005627;28;20376;-72
2023/09/24 03:38:20;;;;;;;;;;;;;;;8.07;100.00;102351.16;5006284;28;19921;-72
2023/09/24 03:40:45;;;;;;;;;;;;;;;8.12;100.00;102350.97;4997880;28;19921;-72
2023/09/24 03:43:10;;;;;;;;;;;;;;;8.13;100.00;102355.38;4997736;28;19968;-72
2023/09/24 03:45:36;;;;;;;;;;;;;;;8.15;100.00;102358.84;5002316;28;20020;-72
2023/09/24 03:48:02;;;;;;;;;;;;;;;8.12;100.00;102364.34;4996184;28;19943;-72
2023/09/24 03:50:27;;;;;;;;;;;;;;;7.85;100.00;102320.91;5000482;28;19921;-71
2023/09/24 03:52:52;;;;;;;;;;;;;;;8.13;100.00;102359.84;5000028;28;20071;-72
2023/09/24 03:55:19;;;;;;;;;;;;;;;8.07;100.00;102361.00;5000300;28;20380;-72
2023/09/24 03:57:44;;;;;;;;;;;;;;;8.03;100.00;102370.06;4999917;28;19933;-72
2023/09/24 04:00:13;;;;;;;;;;;;;;;8.02;100.00;102373.69;5000959;28;19917;-72
2023/09/24 04:02:43;;;;;;;;;;;;;;;8.00;100.00;102372.88;5006470;28;20371;-72
2023/09/24 04:05:14;;;;;;;;;;;;;;;8.03;100.00;102373.63;5003714;28;20040;-72
2023/09/24 04:07:40;;;;;;;;;;;;;;;8.04;100.00;102374.50;4993333;28;20609;-72
2023/09/24 04:10:05;;;;;;;;;;;;;;;8.02;100.00;102379.03;5000791;28;19955;-72
2023/09/24 04:12:33;;;;;;;;;;;;;;;8.05;100.00;102384.25;5001064;28;19922;-72
2023/09/24 04:14:58;;;;;;;;;;;;;;;7.82;100.00;102351.34;5001630;28;19918;-72
2023/09/24 04:17:23;;;;;;;;;;;;;;;7.97;100.00;102389.94;4998291;28;19984;-71
2023/09/24 04:19:49;;;;;;;;;;;;;;;8.00;100.00;102388.91;5003774;28;19921;-71
2023/09/24 04:22:15;;;;;;;;;;;;;;;8.01;100.00;102396.00;4996098;28;19921;-72
2023/09/24 04:24:40;;;;;;;;;;;;;;;7.96;100.00;102385.53;5001034;28;20024;-71
2023/09/24 04:27:06;;;;;;;;;;;;;;;7.97;100.00;102389.94;4984085;28;19932;-72
2023/09/24 04:29:31;;;;;;;;;;;;;;;7.96;100.00;102401.56;4997860;28;19944;-72
2023/09/24 04:31:56;;;;;;;;;;;;;;;7.88;100.00;102399.22;5000915;28;19941;-72
2023/09/24 04:34:21;;;;;;;;;;;;;;;7.89;100.00;102392.94;5000444;28;20056;-72
2023/09/24 04:36:47;;;;;;;;;;;;;;;7.91;100.00;102396.41;5003592;28;20019;-72
2023/09/24 04:39:12;;;;;;;;;;;;;;;7.85;100.00;102391.31;5000341;28;19925;-72
2023/09/24 04:41:40;;;;;;;;;;;;;;;7.76;100.00;102400.59;4997365;28;19917;-72
2023/09/24 04:44:05;;;;;;;;;;;;;;;7.68;100.00;102397.34;5000660;28;19925;-72
2023/09/24 04:46:30;;;;;;;;;;;;;;;7.62;100.00;102405.63;4997653;28;19925;-71
2023/09/24 04:48:55;;;;;;;;;;;;;;;7.63;100.00;102408.25;4999870;28;20375;-72
2023/09/24 04:51:21;;;;;;;;;;;;;;;7.64;100.00;102396.63;4999325;28;20372;-69
2023/09/24 04:53:46;;;;;;;;;;;;;;;7.60;100.00;102402.13;5007265;28;19921;-72
2023/09/24 04:56:11;;;;;;;;;;;;;;;7.60;100.00;102405.69;5003338;28;19948;-71
2023/09/24 04:58:37;;;;;;;;;;;;;;;7.59;100.00;102400.38;4997588;28;19980;-71
2023/09/24 05:01:04;;;;;;;;;;;;;;;7.62;100.00;102402.94;4987791;28;20257;-72
2023/09/24 05:03:29;;;;;;;;;;;;;;;7.57;100.00;102397.78;4998911;28;19928;-72
2023/09/24 05:05:54;;;;;;;;;;;;;;;7.50;100.00;102402.53;4999697;28;19926;-71
2023/09/24 05:08:19;;;;;;;;;;;;;;;7.54;100.00;102402.41;5000620;28;19917;-71
2023/09/24 05:10:44;;;;;;;;;;;;;;;7.48;100.00;102399.03;5001669;28;19922;-71
2023/09/24 05:13:11;;;;;;;;;;;;;;;7.55;100.00;102410.34;5000619;28;19957;-71
2023/09/24 05:15:36;;;;;;;;;;;;;;;7.53;100.00;102411.34;5000542;28;19972;-71
2023/09/24 05:18:02;;;;;;;;;;;;;;;7.47;100.00;102416.00;5003431;28;20015;-71
2023/09/24 05:20:28;;;;;;;;;;;;;;;7.32;100.00;102393.44;5001165;28;19976;-71
2023/09/24 05:22:54;;;;;;;;;;;;;;;7.47;100.00;102412.44;5001466;28;19917;-70
2023/09/24 05:25:19;;;;;;;;;;;;;;;7.50;100.00;102412.31;5000645;28;19918;-69
2023/09/24 05:27:45;;;;;;;;;;;;;;;7.47;100.00;102417.78;5000654;28;19936;-71
2023/09/24 05:30:10;;;;;;;;;;;;;;;7.46;100.00;102429.41;4999175;28;19922;-70
2023/09/24 05:32:35;;;;;;;;;;;;;;;7.47;100.00;102425.81;5001133;28;19918;-71
2023/09/24 05:35:00;;;;;;;;;;;;;;;7.51;100.00;102430.09;5003916;28;19917;-71
2023/09/24 05:37:26;;;;;;;;;;;;;;;7.46;100.00;102427.63;4987344;28;20703;-71
2023/09/24 05:39:51;;;;;;;;;;;;;;;7.44;100.00;102432.16;5000413;28;19925;-71
2023/09/24 05:42:16;;;;;;;;;;;;;;;7.49;100.00;102438.19;5001750;28;19964;-71
2023/09/24 05:44:42;;;;;;;;;;;;;;;7.51;100.00;102440.78;5002630;28;19928;-71
2023/09/24 05:47:08;;;;;;;;;;;;;;;7.53;100.00;102435.41;4997964;28;19929;-71
2023/09/24 05:49:33;;;;;;;;;;;;;;;7.52;100.00;102450.56;5004209;28;19922;-71
2023/09/24 05:51:58;;;;;;;;;;;;;;;7.50;100.00;102449.75;5002172;28;19996;-71
2023/09/24 05:54:23;;;;;;;;;;;;;;;7.56;100.00;102448.63;5002784;28;19921;-71
2023/09/24 05:56:49;;;;;;;;;;;;;;;7.61;100.00;102452.00;5003027;28;20000;-71
2023/09/24 05:59:14;;;;;;;;;;;;;;;7.65;100.00;102456.28;5017281;22;20731;-71
2023/09/24 06:01:39;;;;;;;;;;;;;;;7.72;100.00;102456.91;4986532;28;19964;-71
2023/09/24 06:04:04;;;;;;;;;;;;;;;7.77;100.00;102457.59;4999675;28;19921;-71
2023/09/24 06:06:30;;;;;;;;;;;;;;;7.79;100.00;102453.06;5000539;28;20317;-71
2023/09/24 06:08:55;;;;;;;;;;;;;;;7.81;100.00;102468.09;4997949;28;19972;-71
2023/09/24 06:11:20;;;;;;;;;;;;;;;7.84;100.00;102467.13;4998838;28;19918;-71
2023/09/24 06:13:45;;;;;;;;;;;;;;;7.91;100.00;102467.75;4998596;28;19943;-71
2023/09/24 06:16:10;;;;;;;;;;;;;;;7.88;100.00;102466.06;5005102;28;20052;-71
2023/09/24 06:18:36;;;;;;;;;;;;;;;7.99;100.00;102472.78;4998052;28;20360;-71
2023/09/24 06:21:04;;;;;;;;;;;;;;;8.07;100.00;102476.91;4991302;28;19921;-71
2023/09/24 06:23:29;;;;;;;;;;;;;;;8.14;100.00;102474.84;4997822;28;19921;-71
2023/09/24 06:25:55;;;;;;;;;;;;;;;8.20;100.00;102471.03;4997828;28;19944;-70
2023/09/24 06:28:20;;;;;;;;;;;;;;;8.33;100.00;102476.72;4997657;28;19996;-71
2023/09/24 06:30:46;;;;;;;;;;;;;;;8.40;100.00;102480.91;4999404;28;19955;-71
2023/09/24 06:33:11;;;;;;;;;;;;;;;8.46;100.00;102477.97;4998238;28;19982;-71
2023/09/24 06:35:37;;;;;;;;;;;;;;;8.53;100.00;102489.31;5005165;28;19924;-70
2023/09/24 06:38:02;;;;;;;;;;;;;;;8.59;100.00;102491.75;5007874;28;20496;-71
2023/09/24 06:40:28;;;;;;;;;;;;;;;8.63;100.00;102498.66;5000231;28;19971;-71
2023/09/24 06:42:53;;;;;;;;;;;;;;;8.74;100.00;102489.31;4999948;28;19936;-70
2023/09/24 06:45:18;;;;;;;;;;;;;;;8.83;100.00;102502.31;4999237;28;20319;-70
2023/09/24 06:47:44;;;;;;;;;;;;;;;8.84;100.00;102494.19;5004209;28;20395;-71
2023/09/24 06:50:10;;;;;;;;;;;;;;;8.95;100.00;102501.75;5003166;28;20379;-71
2023/09/24 06:52:35;;;;;;;;;;;;;;;9.02;100.00;102498.81;5002284;28;20096;-70
2023/09/24 06:55:00;;;;;;;;;;;;;;;9.03;100.00;102503.22;5006706;28;20042;-71
2023/09/24 06:57:26;;;;;;;;;;;;;;;9.04;100.00;102513.88;4998843;28;20471;-72
2023/09/24 06:59:51;;;;;;;;;;;;;;;9.11;100.00;102506.44;4981498;28;20000;-71
2023/09/24 07:02:16;;;;;;;;;;;;;;;9.22;100.00;102512.16;5002023;28;20592;-70
2023/09/24 07:04:42;;;;;;;;;;;;;;;9.23;100.00;102511.25;4999277;28;20434;-69
2023/09/24 07:07:08;;;;;;;;;;;;;;;9.32;100.00;102517.13;4998744;28;19932;-71
2023/09/24 07:09:34;;;;;;;;;;;;;;;9.32;100.00;102520.66;4998731;28;20035;-71
2023/09/24 07:11:59;;;;;;;;;;;;;;;9.36;100.00;102508.88;4998959;28;20428;-71
2023/09/24 07:14:24;;;;;;;;;;;;;;;9.30;100.00;102515.38;4999161;28;19914;-72
2023/09/24 07:16:49;;;;;;;;;;;;;;;9.39;100.00;102516.78;5000174;28;20402;-71
2023/09/24 07:19:15;;;;;;;;;;;;;;;9.43;100.00;102520.16;4999024;28;20432;-71
2023/09/24 07:21:41;;;;;;;;;;;;;;;9.50;100.00;102523.47;4998165;28;19913;-71
2023/09/24 07:24:06;;;;;;;;;;;;;;;9.57;100.00;102528.47;4998173;28;20028;-71
2023/09/24 07:26:32;;;;;;;;;;;;;;;9.67;100.00;102528.00;4998573;28;19932;-69
2023/09/24 07:28:57;;;;;;;;;;;;;;;9.79;100.00;102531.94;4998665;28;19925;-72
2023/09/24 07:31:25;;;;;;;;;;;;;;;9.92;100.00;102537.59;4980556;28;20308;-69
2023/09/24 07:33:54;;;;;;;;;;;;;;;10.08;100.00;102529.66;4997920;28;19925;-70
2023/09/24 07:36:19;;;;;;;;;;;;;;;10.12;100.00;102539.28;5004331;28;20036;-70
2023/09/24 07:38:44;;;;;;;;;;;;;;;10.29;100.00;102539.34;4981021;28;20039;-72
2023/09/24 07:41:10;;;;;;;;;;;;;;;10.53;100.00;102540.91;4965724;28;19921;-74
2023/09/24 07:43:39;;;;;;;;;;;;;;;10.60;100.00;102536.97;5002698;28;19944;-71
2023/09/24 07:46:05;;;;;;;;;;;;;;;10.69;100.00;102549.06;5001601;28;20523;-71
2023/09/24 07:48:30;;;;;;;;;;;;;;;10.80;100.00;102549.38;4998423;28;19964;-73
2023/09/24 07:50:56;;;;;;;;;;;;;;;10.89;100.00;102550.72;5000060;28;20059;-72
2023/09/24 07:53:22;;;;;;;;;;;;;;;11.04;100.00;102557.13;4997582;28;20272;-74
2023/09/24 07:56:07;;;;;;;;;;;;;;;11.18;100.00;102553.69;5006866;28;19972;-71
2023/09/24 07:58:33;;;;;;;;;;;;;;;11.28;100.00;102552.25;4987737;28;20384;-72
2023/09/24 08:01:06;;;;;;;;;;;;;;;11.43;100.00;102557.78;4985279;28;20028;-72
2023/09/24 08:03:31;;;;;;;;;;;;;;;11.64;100.00;102559.28;4994000;28;20016;-73
2023/09/24 08:05:57;;;;;;;;;;;;;;;11.73;100.00;102549.81;5010902;28;20221;-71
2023/09/24 08:08:23;;;;;;;;;;;;;;;11.88;100.00;102550.78;4979021;28;19929;-75
2023/09/24 08:10:48;;;;;;;;;;;;;;;12.05;100.00;102544.50;4982427;28;19972;-73
2023/09/24 08:13:13;;;;;;;;;;;;;;;12.14;100.00;102541.28;5002150;28;20388;-72
2023/09/24 08:15:39;;;;;;;;;;;;;;;12.30;100.00;102546.66;5002036;28;19921;-72
2023/09/24 08:18:09;;;;;;;;;;;;;;;12.30;100.00;102537.69;4997755;28;19961;-74
2023/09/24 08:20:34;;;;;;;;;;;;;;;12.43;100.00;102544.13;4997245;28;20419;-74
2023/09/24 08:22:59;;;;;;;;;;;;;;;12.54;100.00;102535.41;4976116;28;19917;-70
2023/09/24 08:25:25;;;;;;;;;;;;;;;12.73;100.00;102536.97;5001563;28;20398;-72
2023/09/24 08:27:50;;;;;;;;;;;;;;;12.96;100.00;102551.78;4997149;28;19972;-72
2023/09/24 08:30:16;;;;;;;;;;;;;;;13.09;100.00;102548.31;4980268;28;19921;-73
2023/09/24 08:32:41;;;;;;;;;;;;;;;13.07;100.00;102545.72;5007082;28;19952;-73
2023/09/24 08:35:06;;;;;;;;;;;;;;;13.14;100.00;102554.31;5008066;28;20025;-73
2023/09/24 08:37:32;;;;;;;;;;;;;;;13.26;100.00;102548.13;5003207;28;20228;-73
2023/09/24 08:39:57;;;;;;;;;;;;;;;13.45;100.00;102547.03;4980138;28;19928;-75
2023/09/24 08:42:22;;;;;;;;;;;;;;;13.57;100.00;102548.09;5003148;28;20020;-72
2023/09/24 08:44:50;;;;;;;;;;;;;;;13.71;100.00;102545.38;5012619;28;20028;-71
2023/09/24 08:47:15;;;;;;;;;;;;;;;13.84;100.00;102550.84;5000702;28;19925;-72
2023/09/24 08:49:41;;;;;;;;;;;;;;;13.91;100.00;102546.78;5000305;28;19917;-73
2023/09/24 08:52:06;;;;;;;;;;;;;;;14.06;100.00;102549.44;5004760;28;19929;-72
2023/09/24 08:54:31;;;;;;;;;;;;;;;14.32;100.00;102547.72;5013036;28;19983;-71
2023/09/24 08:56:57;;;;;;;;;;;;;;;14.42;100.00;102547.97;5001306;28;19941;-71
2023/09/24 08:59:22;;;;;;;;;;;;;;;14.61;100.00;102544.00;4989030;28;19931;-73
2023/09/24 09:01:51;;;;;;;;;;;;;;;14.55;100.00;102546.19;5005202;28;19948;-72
2023/09/24 09:04:16;;;;;;;;;;;;;;;14.83;100.00;102538.91;4990253;28;19921;-71
2023/09/24 09:06:41;;;;;;;;;;;;;;;14.75;100.00;102535.00;5010278;28;20446;-72
2023/09/24 09:09:07;;;;;;;;;;;;;;;14.88;100.00;102544.00;5013254;28;19963;-72
2023/09/24 09:11:39;;;;;;;;;;;;;;;14.93;100.00;102539.16;5000193;28;20040;-76
2023/09/24 09:14:04;;;;;;;;;;;;;;;15.13;100.00;102540.44;5006067;28;19922;-72
2023/09/24 09:16:29;;;;;;;;;;;;;;;15.32;100.00;102539.16;5007273;28;19921;-70
2023/09/24 09:19:01;;;;;;;;;;;;;;;15.21;100.00;102539.94;5006179;28;19943;-72
2023/09/24 09:21:26;;;;;;;;;;;;;;;15.27;100.00;102527.78;4965727;28;20261;-72
2023/09/24 09:23:52;;;;;;;;;;;;;;;15.57;100.00;102529.28;5012909;28;20374;-74
2023/09/24 09:26:17;;;;;;;;;;;;;;;15.43;100.00;102536.53;5002486;28;19932;-72
2023/09/24 09:28:42;;;;;;;;;;;;;;;15.60;100.00;102529.06;4995634;28;19928;-72
2023/09/24 09:31:08;;;;;;;;;;;;;;;15.74;100.00;102525.34;5006858;28;19917;-70
2023/09/24 09:33:34;;;;;;;;;;;;;;;15.96;100.00;102532.75;5000472;28;19921;-73
2023/09/24 09:36:00;;;;;;;;;;;;;;;16.11;100.00;102530.75;5006465;28;19921;-75
2023/09/24 09:38:28;;;;;;;;;;;;;;;16.03;100.00;102522.31;5005180;28;19937;-72
2023/09/24 09:40:58;;;;;;;;;;;;;;;16.03;100.00;102515.09;5005077;28;19967;-73
2023/09/24 09:43:25;;;;;;;;;;;;;;;16.24;100.00;102510.88;4990892;28;19952;-73
2023/09/24 09:45:51;;;;;;;;;;;;;;;16.38;100.00;102510.69;4985256;28;19921;-74
2023/09/24 09:48:17;;;;;;;;;;;;;;;16.51;100.00;102497.06;4998193;28;20329;-69
2023/09/24 09:50:45;;;;;;;;;;;;;;;16.60;100.00;102492.75;4989168;28;20458;-71
2023/09/24 09:53:10;;;;;;;;;;;;;;;16.94;100.00;102488.28;5010756;28;20294;-72
2023/09/24 09:55:36;;;;;;;;;;;;;;;16.90;100.00;102478.66;4985077;28;19921;-72
2023/09/24 09:58:01;;;;;;;;;;;;;;;16.82;100.00;102475.69;5009892;28;19917;-71
2023/09/24 10:00:27;;;;;;;;;;;;;;;16.93;100.00;102473.00;4998913;28;20402;-72
2023/09/24 10:02:54;;;;;;;;;;;;;;;16.98;100.00;102474.50;5003153;28;19918;-71
2023/09/24 10:05:19;;;;;;;;;;;;;;;16.75;100.00;102472.59;4974401;28;19925;-74
2023/09/24 10:07:45;;;;;;;;;;;;;;;16.80;100.00;102464.09;4998145;28;19928;-70
2023/09/24 10:10:29;;;;;;;;;;;;;;;17.05;100.00;102454.91;5007799;28;19959;-73
2023/09/24 10:12:54;;;;;;;;;;;;;;;17.06;100.00;102469.31;5003540;28;19921;-74
2023/09/24 10:15:22;;;;;;;;;;;;;;;17.16;100.00;102455.88;4998912;28;19967;-74
2023/09/24 10:17:50;;;;;;;;;;;;;;;17.31;100.00;102457.38;5002044;28;19921;-75
2023/09/24 10:20:18;;;;;;;;;;;;;;;17.32;100.00;102453.66;4997338;28;20310;-71
2023/09/24 10:22:44;;;;;;;;;;;;;;;17.39;100.00;102457.59;5003116;28;20296;-76
2023/09/24 10:25:28;;;;;;;;;;;;;;;17.56;100.00;102451.78;4982883;28;20296;-74
2023/09/24 10:28:01;;;;;;;;;;;;;;;17.72;100.00;102445.94;4999463;28;19971;-74
2023/09/24 10:30:26;;;;;;;;;;;;;;;17.60;100.00;102445.09;4982425;28;20131;-75
2023/09/24 10:32:51;;;;;;;;;;;;;;;17.73;100.00;102439.50;4999252;28;19944;-72
2023/09/24 10:35:17;;;;;;;;;;;;;;;17.72;100.00;102445.94;4985865;28;19921;-71
2023/09/24 10:37:56;;;;;;;;;;;;;;;17.99;100.00;102437.38;4988949;28;19928;-72
2023/09/24 10:40:21;;;;;;;;;;;;;;;18.10;100.00;102441.91;5002156;28;19925;-68
2023/09/24 10:43:06;;;;;;;;;;;;;;;17.99;100.00;102449.09;4982985;28;19929;-72
2023/09/24 10:45:31;;;;;;;;;;;;;;;18.22;100.00;102445.44;4988531;28;19928;-71
2023/09/24 10:47:56;;;;;;;;;;;;;;;18.14;100.00;102448.81;4997712;28;19925;-72
2023/09/24 10:50:24;;;;;;;;;;;;;;;18.32;100.00;102430.03;5002108;28;20150;-73
2023/09/24 10:52:50;;;;;;;;;;;;;;;18.42;100.00;102451.84;4988288;28;19963;-71
2023/09/24 10:55:18;;;;;;;;;;;;;;;18.23;99.61;102444.44;5007771;28;19921;-71
2023/09/24 10:57:44;;;;;;;;;;;;;;;18.18;93.76;102439.38;4981107;28;19921;-72
2023/09/24 11:00:13;;;;;;;;;;;;;;;18.64;99.75;102450.00;5002754;28;19961;-73
2023/09/24 11:02:38;;;;;;;;;;;;;;;18.53;100.00;102440.91;5003526;28;19961;-73
2023/09/24 11:05:04;;;;;;;;;;;;;;;18.86;97.07;102425.38;4998920;28;19951;-71
2023/09/24 11:07:30;;;;;;;;;;;;;;;19.00;90.64;102440.50;5004208;28;19925;-73
2023/09/24 11:09:55;;;;;;;;;;;;;;;19.12;97.67;102441.25;4998849;28;20462;-72
2023/09/24 11:12:20;;;;;;;;;;;;;;;19.23;87.55;102442.16;4999258;28;19922;-74
2023/09/24 11:14:52;;;;;;;;;;;;;;;19.37;91.62;102438.19;5001664;28;19921;-73
2023/09/24 11:17:18;;;;;;;;;;;;;;;19.08;91.27;102438.94;4965769;28;20288;-71
2023/09/24 11:19:47;;;;;;;;;;;;;;;19.32;93.06;102439.47;5003848;28;20385;-70
2023/09/24 11:22:22;;;;;;;;;;;;;;;19.82;94.60;102437.72;5008795;28;19921;-71
2023/09/24 11:24:50;;;;;;;;;;;;;;;20.13;88.21;102442.19;4969797;28;19964;-72
2023/09/24 11:27:15;;;;;;;;;;;;;;;19.89;86.95;102435.31;4979300;28;19936;-70
2023/09/24 11:29:54;;;;;;;;;;;;;;;20.34;83.90;102431.13;4998978;28;20292;-72
2023/09/24 11:32:23;;;;;;;;;;;;;;;20.73;79.00;102422.00;5010548;28;19925;-72
2023/09/24 11:34:49;;;;;;;;;;;;;;;20.44;79.38;102423.78;5006303;28;19925;-71
2023/09/24 11:37:15;;;;;;;;;;;;;;;20.33;78.71;102427.53;4980138;28;19917;-70
2023/09/24 11:39:43;;;;;;;;;;;;;;;20.73;84.06;102427.47;4997809;28;19961;-72
2023/09/24 11:42:08;;;;;;;;;;;;;;;20.67;78.50;102429.78;5002766;28;19921;-70
2023/09/24 11:44:46;;;;;;;;;;;;;;;20.81;76.54;102436.66;5008611;28;19917;-71
2023/09/24 11:47:11;;;;;;;;;;;;;;;20.90;78.84;102423.97;4995733;28;19926;-72
2023/09/24 11:49:36;;;;;;;;;;;;;;;21.08;78.66;102420.44;4998819;28;19964;-71
2023/09/24 11:52:09;;;;;;;;;;;;;;;20.95;73.29;102418.94;4996460;28;19976;-71
2023/09/24 11:54:34;;;;;;;;;;;;;;;21.50;77.03;102416.34;4986825;28;19980;-73
2023/09/24 11:56:59;;;;;;;;;;;;;;;21.27;73.31;102408.56;4998841;28;20456;-73
2023/09/24 11:59:25;;;;;;;;;;;;;;;21.19;75.60;102414.81;4996358;28;19933;-72
2023/09/24 12:01:50;;;;;;;;;;;;;;;21.20;74.50;102411.06;5002170;28;19921;-71
2023/09/24 12:04:15;;;;;;;;;;;;;;;21.06;79.70;102408.81;4964188;28;19949;-73
2023/09/24 12:06:40;;;;;;;;;;;;;;;21.39;73.51;102409.22;5005636;28;20225;-71
2023/09/24 12:09:06;;;;;;;;;;;;;;;21.17;78.31;102408.63;4997722;28;20651;-72
2023/09/24 12:11:31;;;;;;;;;;;;;;;21.33;75.26;102416.16;4995903;28;20275;-70
2023/09/24 12:13:56;;;;;;;;;;;;;;;21.76;62.28;102407.41;5002423;28;19921;-73
2023/09/24 12:16:21;;;;;;;;;;;;;;;20.95;69.56;102413.47;4988543;28;19929;-72
2023/09/24 12:18:47;;;;;;;;;;;;;;;21.48;70.33;102416.50;4987359;28;19929;-72
2023/09/24 12:21:12;;;;;;;;;;;;;;;21.58;60.85;102406.34;5003884;28;19921;-72
2023/09/24 12:23:38;;;;;;;;;;;;;;;22.16;66.30;102403.34;4991622;28;20356;-71
2023/09/24 12:26:03;;;;;;;;;;;;;;;21.90;66.43;102403.28;5008379;28;20332;-73
2023/09/24 12:28:28;;;;;;;;;;;;;;;22.03;63.39;102406.50;5004732;28;19925;-72